sensor_id;sensor_type;location;lat;lon;timestamp;temperature;humidity
51908;DHT22;39320;53.214;6.556;2022-12-18T00:01:37;-1.10;99.90
51908;DHT22;39320;53.214;6.556;2022-12-18T00:04:07;-1.10;99.90
51908;DHT22;39320;53.214;6.556;2022-12-18T00:06:38;-1.10;99.90
51908;DHT22;39320;53.214;6.556;2022-12-18T00:09:03;-1.00;99.90
51908;DHT22;39320;53.214;6.556;2022-12-18T00:11:30;-1.20;99.90
51908;DHT22;39320;53.214;6.556;2022-12-18T00:13:58;-1.20;99.90
51908;DHT22;39320;53.214;6.556;2022-12-18T00:16:26;-0.40;99.90
51908;DHT22;39320;53.214;6.556;2022-12-18T00:18:53;-1.20;99.90
51908;DHT22;39320;53.214;6.556;2022-12-18T00:21:20;-1.20;99.90
51908;DHT22;39320;53.214;6.556;2022-12-18T00:23:47;-1.20;99.90
51908;DHT22;39320;53.214;6.556;2022-12-18T00:26:16;-1.20;99.90
51908;DHT22;39320;53.214;6.556;2022-12-18T00:28:43;-1.20;99.90
51908;DHT22;39320;53.214;6.556;2022-12-18T00:31:15;-1.20;99.90
51908;DHT22;39320;53.214;6.556;2022-12-18T00:33:42;-1.20;99.90
51908;DHT22;39320;53.214;6.556;2022-12-18T00:36:11;-1.20;99.90
51908;DHT22;39320;53.214;6.556;2022-12-18T00:38:37;-1.20;99.90
51908;DHT22;39320;53.214;6.556;2022-12-18T00:41:03;-1.20;99.90
51908;DHT22;39320;53.214;6.556;2022-12-18T00:43:29;-1.30;99.90
51908;DHT22;39320;53.214;6.556;2022-12-18T00:45:55;-1.20;99.90
51908;DHT22;39320;53.214;6.556;2022-12-18T00:48:21;-1.30;99.90
51908;DHT22;39320;53.214;6.556;2022-12-18T00:50:48;-1.30;99.90
51908;DHT22;39320;53.214;6.556;2022-12-18T00:53:14;-1.30;99.90
51908;DHT22;39320;53.214;6.556;2022-12-18T00:55:40;-1.30;99.90
51908;DHT22;39320;53.214;6.556;2022-12-18T00:58:07;-1.20;99.90
51908;DHT22;39320;53.214;6.556;2022-12-18T01:00:32;-1.30;99.90
51908;DHT22;39320;53.214;6.556;2022-12-18T01:02:58;-1.20;99.90
51908;DHT22;39320;53.214;6.556;2022-12-18T01:05:24;-1.20;99.90
51908;DHT22;39320;53.214;6.556;2022-12-18T01:07:50;-1.20;99.90
51908;DHT22;39320;53.214;6.556;2022-12-18T01:10:15;-1.30;99.90
51908;DHT22;39320;53.214;6.556;2022-12-18T01:12:41;-1.20;99.90
51908;DHT22;39320;53.214;6.556;2022-12-18T01:15:07;-1.20;99.90
51908;DHT22;39320;53.214;6.556;2022-12-18T01:17:34;-1.30;99.90
51908;DHT22;39320;53.214;6.556;2022-12-18T01:20:00;-1.30;99.90
51908;DHT22;39320;53.214;6.556;2022-12-18T01:22:26;-1.30;99.90
51908;DHT22;39320;53.214;6.556;2022-12-18T01:24:51;-0.60;99.90
51908;DHT22;39320;53.214;6.556;2022-12-18T01:27:17;-1.30;99.90
51908;DHT22;39320;53.214;6.556;2022-12-18T01:29:43;-1.20;99.90
51908;DHT22;39320;53.214;6.556;2022-12-18T01:32:09;-1.20;99.90
51908;DHT22;39320;53.214;6.556;2022-12-18T01:34:38;-1.20;99.90
51908;DHT22;39320;53.214;6.556;2022-12-18T01:37:06;-1.20;99.90
51908;DHT22;39320;53.214;6.556;2022-12-18T01:39:33;-1.20;99.90
51908;DHT22;39320;53.214;6.556;2022-12-18T01:42:13;-1.30;99.90
51908;DHT22;39320;53.214;6.556;2022-12-18T01:44:59;-1.20;99.90
51908;DHT22;39320;53.214;6.556;2022-12-18T01:47:32;-1.20;99.90
51908;DHT22;39320;53.214;6.556;2022-12-18T01:50:11;-1.20;99.90
51908;DHT22;39320;53.214;6.556;2022-12-18T01:52:38;-1.20;99.90
51908;DHT22;39320;53.214;6.556;2022-12-18T01:55:07;-1.20;99.90
51908;DHT22;39320;53.214;6.556;2022-12-18T01:57:34;-1.30;99.90
51908;DHT22;39320;53.214;6.556;2022-12-18T02:00:03;-1.30;99.90
51908;DHT22;39320;53.214;6.556;2022-12-18T02:02:30;-1.20;99.90
51908;DHT22;39320;53.214;6.556;2022-12-18T02:04:56;-0.20;99.90
51908;DHT22;39320;53.214;6.556;2022-12-18T02:10:15;-1.30;99.90
51908;DHT22;39320;53.214;6.556;2022-12-18T02:15:40;-1.30;99.90
51908;DHT22;39320;53.214;6.556;2022-12-18T02:18:19;-1.30;99.90
51908;DHT22;39320;53.214;6.556;2022-12-18T02:24:38;-1.40;99.90
51908;DHT22;39320;53.214;6.556;2022-12-18T02:27:09;-1.30;99.90
51908;DHT22;39320;53.214;6.556;2022-12-18T02:29:44;-1.30;99.90
51908;DHT22;39320;53.214;6.556;2022-12-18T02:32:15;-1.40;99.90
51908;DHT22;39320;53.214;6.556;2022-12-18T02:34:43;-1.40;99.90
51908;DHT22;39320;53.214;6.556;2022-12-18T02:37:13;-1.40;99.90
51908;DHT22;39320;53.214;6.556;2022-12-18T02:39:42;-0.50;99.90
51908;DHT22;39320;53.214;6.556;2022-12-18T02:42:09;-1.30;99.90
51908;DHT22;39320;53.214;6.556;2022-12-18T02:44:42;-1.30;99.90
51908;DHT22;39320;53.214;6.556;2022-12-18T02:47:14;-1.40;99.90
51908;DHT22;39320;53.214;6.556;2022-12-18T03:00:27;-1.50;99.90
51908;DHT22;39320;53.214;6.556;2022-12-18T03:05:31;-1.50;99.90
51908;DHT22;39320;53.214;6.556;2022-12-18T03:08:08;-1.50;99.90
51908;DHT22;39320;53.214;6.556;2022-12-18T03:11:08;-1.50;99.90
51908;DHT22;39320;53.214;6.556;2022-12-18T03:13:54;-1.50;99.90
51908;DHT22;39320;53.214;6.556;2022-12-18T03:16:27;-1.50;99.90
51908;DHT22;39320;53.214;6.556;2022-12-18T03:19:13;-1.50;99.90
51908;DHT22;39320;53.214;6.556;2022-12-18T03:21:45;-1.50;99.90
51908;DHT22;39320;53.214;6.556;2022-12-18T03:24:11;-1.60;99.90
51908;DHT22;39320;53.214;6.556;2022-12-18T03:26:40;-1.60;99.90
51908;DHT22;39320;53.214;6.556;2022-12-18T03:29:09;-1.60;99.90
51908;DHT22;39320;53.214;6.556;2022-12-18T03:31:40;-1.60;99.90
51908;DHT22;39320;53.214;6.556;2022-12-18T03:34:17;-1.60;99.90
51908;DHT22;39320;53.214;6.556;2022-12-18T03:36:45;-1.70;99.90
51908;DHT22;39320;53.214;6.556;2022-12-18T03:39:11;-1.70;99.90
51908;DHT22;39320;53.214;6.556;2022-12-18T03:42:20;-0.80;99.90
51908;DHT22;39320;53.214;6.556;2022-12-18T03:45:08;-1.70;99.90
51908;DHT22;39320;53.214;6.556;2022-12-18T03:48:00;-1.60;99.90
51908;DHT22;39320;53.214;6.556;2022-12-18T03:55:58;-1.70;99.90
51908;DHT22;39320;53.214;6.556;2022-12-18T03:58:26;-1.60;99.90
51908;DHT22;39320;53.214;6.556;2022-12-18T04:00:56;-1.60;99.90
51908;DHT22;39320;53.214;6.556;2022-12-18T04:03:23;-1.70;99.90
51908;DHT22;39320;53.214;6.556;2022-12-18T04:05:50;-1.50;99.90
51908;DHT22;39320;53.214;6.556;2022-12-18T04:08:17;-1.60;99.90
51908;DHT22;39320;53.214;6.556;2022-12-18T04:10:43;-1.70;99.90
51908;DHT22;39320;53.214;6.556;2022-12-18T04:13:09;-1.70;99.90
51908;DHT22;39320;53.214;6.556;2022-12-18T04:15:36;-1.70;99.90
51908;DHT22;39320;53.214;6.556;2022-12-18T04:18:03;-1.60;99.90
51908;DHT22;39320;53.214;6.556;2022-12-18T04:20:29;-1.70;99.90
51908;DHT22;39320;53.214;6.556;2022-12-18T04:22:54;-1.60;99.90
51908;DHT22;39320;53.214;6.556;2022-12-18T04:25:20;-1.70;99.90
51908;DHT22;39320;53.214;6.556;2022-12-18T04:27:46;-1.70;99.90
51908;DHT22;39320;53.214;6.556;2022-12-18T04:30:12;-1.70;99.90
51908;DHT22;39320;53.214;6.556;2022-12-18T04:32:37;-1.70;99.90
51908;DHT22;39320;53.214;6.556;2022-12-18T04:35:03;-1.70;99.90
51908;DHT22;39320;53.214;6.556;2022-12-18T04:37:32;-1.70;99.90
51908;DHT22;39320;53.214;6.556;2022-12-18T04:39:57;-1.80;99.90
51908;DHT22;39320;53.214;6.556;2022-12-18T04:42:23;-1.80;99.90
51908;DHT22;39320;53.214;6.556;2022-12-18T04:44:49;-1.60;99.90
51908;DHT22;39320;53.214;6.556;2022-12-18T04:47:15;-1.80;99.90
51908;DHT22;39320;53.214;6.556;2022-12-18T04:49:41;-1.90;99.90
51908;DHT22;39320;53.214;6.556;2022-12-18T04:52:06;-1.90;99.90
51908;DHT22;39320;53.214;6.556;2022-12-18T04:54:32;-1.90;99.90
51908;DHT22;39320;53.214;6.556;2022-12-18T04:56:58;-1.90;99.90
51908;DHT22;39320;53.214;6.556;2022-12-18T04:59:23;-1.90;99.90
51908;DHT22;39320;53.214;6.556;2022-12-18T05:01:49;-1.90;99.90
51908;DHT22;39320;53.214;6.556;2022-12-18T05:04:15;-1.90;99.90
51908;DHT22;39320;53.214;6.556;2022-12-18T05:06:40;-1.90;99.90
51908;DHT22;39320;53.214;6.556;2022-12-18T05:09:06;-1.90;99.90
51908;DHT22;39320;53.214;6.556;2022-12-18T05:11:32;-1.00;99.90
51908;DHT22;39320;53.214;6.556;2022-12-18T05:13:57;-1.80;99.90
51908;DHT22;39320;53.214;6.556;2022-12-18T05:16:23;-1.80;99.90
51908;DHT22;39320;53.214;6.556;2022-12-18T05:18:49;-1.80;99.90
51908;DHT22;39320;53.214;6.556;2022-12-18T05:21:15;-1.80;99.90
51908;DHT22;39320;53.214;6.556;2022-12-18T05:23:40;-1.80;99.90
51908;DHT22;39320;53.214;6.556;2022-12-18T05:26:06;-1.80;99.90
51908;DHT22;39320;53.214;6.556;2022-12-18T05:28:34;-1.80;99.90
51908;DHT22;39320;53.214;6.556;2022-12-18T05:31:02;-1.80;99.90
51908;DHT22;39320;53.214;6.556;2022-12-18T05:33:31;-1.80;99.90
51908;DHT22;39320;53.214;6.556;2022-12-18T05:35:59;-1.80;99.90
51908;DHT22;39320;53.214;6.556;2022-12-18T05:38:26;-1.80;99.90
51908;DHT22;39320;53.214;6.556;2022-12-18T05:40:53;-1.80;99.90
51908;DHT22;39320;53.214;6.556;2022-12-18T05:43:19;-1.20;99.90
51908;DHT22;39320;53.214;6.556;2022-12-18T05:45:47;-1.90;99.90
51908;DHT22;39320;53.214;6.556;2022-12-18T05:48:14;-1.60;99.90
51908;DHT22;39320;53.214;6.556;2022-12-18T05:50:41;-1.90;99.90
51908;DHT22;39320;53.214;6.556;2022-12-18T05:53:08;-1.90;99.90
51908;DHT22;39320;53.214;6.556;2022-12-18T05:55:38;-1.90;99.90
51908;DHT22;39320;53.214;6.556;2022-12-18T05:58:06;-1.90;99.90
51908;DHT22;39320;53.214;6.556;2022-12-18T06:00:33;-1.90;99.90
51908;DHT22;39320;53.214;6.556;2022-12-18T06:03:00;-1.70;99.90
51908;DHT22;39320;53.214;6.556;2022-12-18T06:05:26;-1.90;99.90
51908;DHT22;39320;53.214;6.556;2022-12-18T06:07:53;-1.90;99.90
51908;DHT22;39320;53.214;6.556;2022-12-18T06:10:18;-1.90;99.90
51908;DHT22;39320;53.214;6.556;2022-12-18T06:12:45;-2.00;99.90
51908;DHT22;39320;53.214;6.556;2022-12-18T06:15:10;-1.90;99.90
51908;DHT22;39320;53.214;6.556;2022-12-18T06:17:36;-2.00;99.90
51908;DHT22;39320;53.214;6.556;2022-12-18T06:20:03;-2.00;99.90
51908;DHT22;39320;53.214;6.556;2022-12-18T06:22:32;-2.00;99.90
51908;DHT22;39320;53.214;6.556;2022-12-18T06:24:58;-2.00;99.90
51908;DHT22;39320;53.214;6.556;2022-12-18T06:27:25;-2.00;99.90
51908;DHT22;39320;53.214;6.556;2022-12-18T06:29:50;-1.90;99.90
51908;DHT22;39320;53.214;6.556;2022-12-18T06:32:16;-1.30;99.90
51908;DHT22;39320;53.214;6.556;2022-12-18T06:34:42;-2.00;99.90
51908;DHT22;39320;53.214;6.556;2022-12-18T06:37:08;-1.90;99.90
51908;DHT22;39320;53.214;6.556;2022-12-18T06:39:33;-2.00;99.90
51908;DHT22;39320;53.214;6.556;2022-12-18T06:41:59;-2.00;99.90
51908;DHT22;39320;53.214;6.556;2022-12-18T06:44:25;-2.00;99.90
51908;DHT22;39320;53.214;6.556;2022-12-18T06:46:50;-2.10;99.90
51908;DHT22;39320;53.214;6.556;2022-12-18T06:49:16;-2.00;99.90
51908;DHT22;39320;53.214;6.556;2022-12-18T06:51:42;-2.10;99.90
51908;DHT22;39320;53.214;6.556;2022-12-18T06:54:08;-2.10;99.90
51908;DHT22;39320;53.214;6.556;2022-12-18T06:56:34;-2.20;99.90
51908;DHT22;39320;53.214;6.556;2022-12-18T06:59:00;-2.20;99.90
51908;DHT22;39320;53.214;6.556;2022-12-18T07:01:26;-2.20;99.90
51908;DHT22;39320;53.214;6.556;2022-12-18T07:03:53;-2.10;99.90
51908;DHT22;39320;53.214;6.556;2022-12-18T07:06:21;-2.20;99.90
51908;DHT22;39320;53.214;6.556;2022-12-18T07:08:48;-2.20;99.90
51908;DHT22;39320;53.214;6.556;2022-12-18T07:11:15;-1.70;99.90
51908;DHT22;39320;53.214;6.556;2022-12-18T07:13:41;-2.20;99.90
51908;DHT22;39320;53.214;6.556;2022-12-18T07:16:18;-2.20;99.90
51908;DHT22;39320;53.214;6.556;2022-12-18T07:18:45;-2.20;99.90
51908;DHT22;39320;53.214;6.556;2022-12-18T07:21:16;-1.50;99.90
51908;DHT22;39320;53.214;6.556;2022-12-18T07:23:42;-2.20;99.90
51908;DHT22;39320;53.214;6.556;2022-12-18T07:26:12;-2.20;99.90
51908;DHT22;39320;53.214;6.556;2022-12-18T07:28:39;-2.30;99.90
51908;DHT22;39320;53.214;6.556;2022-12-18T07:31:11;-1.90;99.90
51908;DHT22;39320;53.214;6.556;2022-12-18T07:33:37;-2.20;99.90
51908;DHT22;39320;53.214;6.556;2022-12-18T07:36:04;-0.90;99.90
51908;DHT22;39320;53.214;6.556;2022-12-18T07:38:31;-2.20;99.90
51908;DHT22;39320;53.214;6.556;2022-12-18T07:41:01;-2.20;99.90
51908;DHT22;39320;53.214;6.556;2022-12-18T07:43:27;-2.20;99.90
51908;DHT22;39320;53.214;6.556;2022-12-18T07:45:52;-2.20;99.90
51908;DHT22;39320;53.214;6.556;2022-12-18T07:48:18;-2.20;99.90
51908;DHT22;39320;53.214;6.556;2022-12-18T07:50:44;-2.20;99.90
51908;DHT22;39320;53.214;6.556;2022-12-18T07:53:09;-2.20;99.90
51908;DHT22;39320;53.214;6.556;2022-12-18T07:55:35;-2.20;99.90
51908;DHT22;39320;53.214;6.556;2022-12-18T07:58:02;-2.20;99.90
51908;DHT22;39320;53.214;6.556;2022-12-18T08:00:28;-1.80;99.90
51908;DHT22;39320;53.214;6.556;2022-12-18T08:02:54;-1.50;99.90
51908;DHT22;39320;53.214;6.556;2022-12-18T08:05:20;-2.10;99.90
51908;DHT22;39320;53.214;6.556;2022-12-18T08:07:46;-2.20;99.90
51908;DHT22;39320;53.214;6.556;2022-12-18T08:10:12;-2.20;99.90
51908;DHT22;39320;53.214;6.556;2022-12-18T08:12:38;-2.20;99.90
51908;DHT22;39320;53.214;6.556;2022-12-18T08:15:04;-2.10;99.90
51908;DHT22;39320;53.214;6.556;2022-12-18T08:17:30;-2.10;99.90
51908;DHT22;39320;53.214;6.556;2022-12-18T08:19:55;-2.10;99.90
51908;DHT22;39320;53.214;6.556;2022-12-18T08:22:21;-2.10;99.90
51908;DHT22;39320;53.214;6.556;2022-12-18T08:24:47;-1.80;99.90
51908;DHT22;39320;53.214;6.556;2022-12-18T08:27:13;-2.10;99.90
51908;DHT22;39320;53.214;6.556;2022-12-18T08:29:38;-2.10;99.90
51908;DHT22;39320;53.214;6.556;2022-12-18T08:32:04;-2.00;99.90
51908;DHT22;39320;53.214;6.556;2022-12-18T08:34:30;-2.00;99.90
51908;DHT22;39320;53.214;6.556;2022-12-18T08:36:56;-1.90;99.90
51908;DHT22;39320;53.214;6.556;2022-12-18T08:39:21;-1.90;99.90
51908;DHT22;39320;53.214;6.556;2022-12-18T08:41:47;-1.90;99.90
51908;DHT22;39320;53.214;6.556;2022-12-18T08:44:33;-1.90;99.90
51908;DHT22;39320;53.214;6.556;2022-12-18T08:47:07;-1.80;99.90
51908;DHT22;39320;53.214;6.556;2022-12-18T08:49:34;-1.80;99.90
51908;DHT22;39320;53.214;6.556;2022-12-18T08:52:00;-1.80;99.90
51908;DHT22;39320;53.214;6.556;2022-12-18T08:54:27;-0.60;99.90
51908;DHT22;39320;53.214;6.556;2022-12-18T08:56:52;-1.90;99.90
51908;DHT22;39320;53.214;6.556;2022-12-18T08:59:19;-1.50;99.90
51908;DHT22;39320;53.214;6.556;2022-12-18T09:01:46;-1.90;99.90
51908;DHT22;39320;53.214;6.556;2022-12-18T09:04:12;-1.90;99.90
51908;DHT22;39320;53.214;6.556;2022-12-18T09:06:39;-1.90;99.90
51908;DHT22;39320;53.214;6.556;2022-12-18T09:09:06;-1.90;99.90
51908;DHT22;39320;53.214;6.556;2022-12-18T09:11:32;-1.90;99.90
51908;DHT22;39320;53.214;6.556;2022-12-18T09:13:59;-1.90;99.90
51908;DHT22;39320;53.214;6.556;2022-12-18T09:16:26;-1.90;99.90
51908;DHT22;39320;53.214;6.556;2022-12-18T09:18:54;-1.90;99.90
51908;DHT22;39320;53.214;6.556;2022-12-18T09:21:25;-1.80;99.90
51908;DHT22;39320;53.214;6.556;2022-12-18T09:23:53;-1.80;99.90
51908;DHT22;39320;53.214;6.556;2022-12-18T09:26:20;-1.80;99.90
51908;DHT22;39320;53.214;6.556;2022-12-18T09:28:45;-1.80;99.90
51908;DHT22;39320;53.214;6.556;2022-12-18T09:31:12;-1.80;99.90
51908;DHT22;39320;53.214;6.556;2022-12-18T09:33:39;-1.30;99.90
51908;DHT22;39320;53.214;6.556;2022-12-18T09:36:07;-1.80;99.90
51908;DHT22;39320;53.214;6.556;2022-12-18T09:38:34;-1.70;99.90
51908;DHT22;39320;53.214;6.556;2022-12-18T09:43:54;-1.70;99.90
51908;DHT22;39320;53.214;6.556;2022-12-18T09:46:28;-1.70;99.90
51908;DHT22;39320;53.214;6.556;2022-12-18T09:49:01;-1.60;99.90
51908;DHT22;39320;53.214;6.556;2022-12-18T09:52:00;-1.60;99.90
51908;DHT22;39320;53.214;6.556;2022-12-18T09:54:33;-1.60;99.90
51908;DHT22;39320;53.214;6.556;2022-12-18T09:57:01;-1.50;99.90
51908;DHT22;39320;53.214;6.556;2022-12-18T09:59:35;-1.50;99.90
51908;DHT22;39320;53.214;6.556;2022-12-18T10:02:17;-1.50;99.90
51908;DHT22;39320;53.214;6.556;2022-12-18T10:04:43;-1.50;99.90
51908;DHT22;39320;53.214;6.556;2022-12-18T10:07:21;-1.50;99.90
51908;DHT22;39320;53.214;6.556;2022-12-18T10:13:06;-1.50;99.90
51908;DHT22;39320;53.214;6.556;2022-12-18T10:18:41;-1.20;99.90
51908;DHT22;39320;53.214;6.556;2022-12-18T10:21:13;-1.40;99.90
51908;DHT22;39320;53.214;6.556;2022-12-18T10:23:56;-1.40;99.90
51908;DHT22;39320;53.214;6.556;2022-12-18T10:26:24;-1.30;99.90
51908;DHT22;39320;53.214;6.556;2022-12-18T10:28:51;-1.30;99.90
51908;DHT22;39320;53.214;6.556;2022-12-18T10:31:21;-1.20;99.90
51908;DHT22;39320;53.214;6.556;2022-12-18T10:33:47;-1.20;99.90
51908;DHT22;39320;53.214;6.556;2022-12-18T10:36:13;-1.20;99.90
51908;DHT22;39320;53.214;6.556;2022-12-18T10:38:40;-1.20;99.90
51908;DHT22;39320;53.214;6.556;2022-12-18T10:43:50;-1.10;99.90
51908;DHT22;39320;53.214;6.556;2022-12-18T10:46:34;-0.70;99.90
51908;DHT22;39320;53.214;6.556;2022-12-18T10:48:59;-1.10;99.90
51908;DHT22;39320;53.214;6.556;2022-12-18T10:51:31;-1.10;99.90
51908;DHT22;39320;53.214;6.556;2022-12-18T10:56:29;-0.80;99.90
51908;DHT22;39320;53.214;6.556;2022-12-18T10:59:02;-1.10;99.90
51908;DHT22;39320;53.214;6.556;2022-12-18T11:01:54;-1.10;99.90
51908;DHT22;39320;53.214;6.556;2022-12-18T11:04:24;-1.00;99.90
51908;DHT22;39320;53.214;6.556;2022-12-18T11:07:00;-1.00;99.90
51908;DHT22;39320;53.214;6.556;2022-12-18T11:09:37;-1.00;99.90
51908;DHT22;39320;53.214;6.556;2022-12-18T11:12:22;-1.00;99.90
51908;DHT22;39320;53.214;6.556;2022-12-18T11:14:53;-0.90;99.90
51908;DHT22;39320;53.214;6.556;2022-12-18T11:17:22;-0.90;99.90
51908;DHT22;39320;53.214;6.556;2022-12-18T11:20:32;-0.90;99.90
51908;DHT22;39320;53.214;6.556;2022-12-18T11:23:20;-0.90;99.90
51908;DHT22;39320;53.214;6.556;2022-12-18T11:25:57;-0.90;99.90
51908;DHT22;39320;53.214;6.556;2022-12-18T11:34:11;-0.80;99.90
51908;DHT22;39320;53.214;6.556;2022-12-18T11:36:43;-0.80;99.90
51908;DHT22;39320;53.214;6.556;2022-12-18T11:42:21;-0.70;99.90
51908;DHT22;39320;53.214;6.556;2022-12-18T11:44:59;-0.70;99.90
51908;DHT22;39320;53.214;6.556;2022-12-18T11:47:35;-0.70;99.90
51908;DHT22;39320;53.214;6.556;2022-12-18T11:50:05;-0.70;99.90
51908;DHT22;39320;53.214;6.556;2022-12-18T11:52:40;-0.70;99.90
51908;DHT22;39320;53.214;6.556;2022-12-18T12:06:54;-0.60;99.90
51908;DHT22;39320;53.214;6.556;2022-12-18T12:20:01;-0.50;99.90
51908;DHT22;39320;53.214;6.556;2022-12-18T12:38:34;-0.40;99.90
51908;DHT22;39320;53.214;6.556;2022-12-18T12:41:06;-0.30;99.90
51908;DHT22;39320;53.214;6.556;2022-12-18T12:43:56;-0.30;99.90
51908;DHT22;39320;53.214;6.556;2022-12-18T12:46:23;-0.30;99.90
51908;DHT22;39320;53.214;6.556;2022-12-18T12:48:58;-0.30;99.90
51908;DHT22;39320;53.214;6.556;2022-12-18T12:51:33;-0.30;99.90
51908;DHT22;39320;53.214;6.556;2022-12-18T12:54:02;-0.30;99.90
51908;DHT22;39320;53.214;6.556;2022-12-18T12:59:35;-0.20;99.90
51908;DHT22;39320;53.214;6.556;2022-12-18T13:02:22;-0.20;99.90
51908;DHT22;39320;53.214;6.556;2022-12-18T13:07:31;-0.20;99.90
51908;DHT22;39320;53.214;6.556;2022-12-18T13:12:59;-0.20;99.90
51908;DHT22;39320;53.214;6.556;2022-12-18T13:15:30;-0.10;99.90
51908;DHT22;39320;53.214;6.556;2022-12-18T13:18:23;-0.10;99.90
51908;DHT22;39320;53.214;6.556;2022-12-18T13:21:23;-0.10;99.90
51908;DHT22;39320;53.214;6.556;2022-12-18T13:23:50;0.20;99.90
51908;DHT22;39320;53.214;6.556;2022-12-18T13:31:14;0.10;99.90
51908;DHT22;39320;53.214;6.556;2022-12-18T13:33:43;0.00;99.90
51908;DHT22;39320;53.214;6.556;2022-12-18T13:38:42;0.00;99.90
51908;DHT22;39320;53.214;6.556;2022-12-18T13:41:23;0.00;99.90
51908;DHT22;39320;53.214;6.556;2022-12-18T13:43:57;0.30;99.90
51908;DHT22;39320;53.214;6.556;2022-12-18T13:46:49;0.10;99.90
51908;DHT22;39320;53.214;6.556;2022-12-18T13:49:37;0.10;99.90
51908;DHT22;39320;53.214;6.556;2022-12-18T13:52:19;0.10;99.90
51908;DHT22;39320;53.214;6.556;2022-12-18T13:54:50;0.10;99.90
51908;DHT22;39320;53.214;6.556;2022-12-18T13:57:31;0.10;99.90
51908;DHT22;39320;53.214;6.556;2022-12-18T13:59:59;0.10;99.90
51908;DHT22;39320;53.214;6.556;2022-12-18T14:02:37;0.10;99.90
51908;DHT22;39320;53.214;6.556;2022-12-18T14:05:03;0.10;99.90
51908;DHT22;39320;53.214;6.556;2022-12-18T14:07:30;0.10;99.90
51908;DHT22;39320;53.214;6.556;2022-12-18T14:09:59;0.10;99.90
51908;DHT22;39320;53.214;6.556;2022-12-18T14:12:33;0.10;99.90
51908;DHT22;39320;53.214;6.556;2022-12-18T14:15:32;0.20;99.90
51908;DHT22;39320;53.214;6.556;2022-12-18T14:17:59;0.20;99.90
51908;DHT22;39320;53.214;6.556;2022-12-18T14:20:28;0.20;99.90
51908;DHT22;39320;53.214;6.556;2022-12-18T14:22:56;0.30;99.90
51908;DHT22;39320;53.214;6.556;2022-12-18T14:25:23;0.20;99.90
51908;DHT22;39320;53.214;6.556;2022-12-18T14:30:41;0.20;99.90
51908;DHT22;39320;53.214;6.556;2022-12-18T14:33:17;0.20;99.90
51908;DHT22;39320;53.214;6.556;2022-12-18T14:36:02;0.20;99.90
51908;DHT22;39320;53.214;6.556;2022-12-18T14:38:32;0.20;99.90
51908;DHT22;39320;53.214;6.556;2022-12-18T14:43:27;0.20;99.90
51908;DHT22;39320;53.214;6.556;2022-12-18T14:45:53;0.20;99.90
51908;DHT22;39320;53.214;6.556;2022-12-18T14:48:39;0.20;99.90
51908;DHT22;39320;53.214;6.556;2022-12-18T14:51:06;0.20;99.90
51908;DHT22;39320;53.214;6.556;2022-12-18T14:53:41;0.20;99.90
51908;DHT22;39320;53.214;6.556;2022-12-18T14:56:21;0.20;99.90
51908;DHT22;39320;53.214;6.556;2022-12-18T14:58:49;0.20;99.90
51908;DHT22;39320;53.214;6.556;2022-12-18T15:01:44;0.20;99.90
51908;DHT22;39320;53.214;6.556;2022-12-18T15:04:35;0.10;99.90
51908;DHT22;39320;53.214;6.556;2022-12-18T15:09:32;0.20;99.90
51908;DHT22;39320;53.214;6.556;2022-12-18T15:12:00;1.30;99.90
51908;DHT22;39320;53.214;6.556;2022-12-18T15:14:41;0.10;99.90
51908;DHT22;39320;53.214;6.556;2022-12-18T15:17:23;0.10;99.90
51908;DHT22;39320;53.214;6.556;2022-12-18T15:20:00;0.20;99.90
51908;DHT22;39320;53.214;6.556;2022-12-18T15:22:35;0.20;99.90
51908;DHT22;39320;53.214;6.556;2022-12-18T15:25:01;0.10;99.90
51908;DHT22;39320;53.214;6.556;2022-12-18T15:27:33;0.10;99.90
51908;DHT22;39320;53.214;6.556;2022-12-18T15:32:37;0.10;99.90
51908;DHT22;39320;53.214;6.556;2022-12-18T15:35:23;0.10;99.90
51908;DHT22;39320;53.214;6.556;2022-12-18T15:37:51;0.10;99.90
51908;DHT22;39320;53.214;6.556;2022-12-18T15:40:19;0.10;99.90
51908;DHT22;39320;53.214;6.556;2022-12-18T15:42:46;0.10;99.90
51908;DHT22;39320;53.214;6.556;2022-12-18T15:45:31;0.10;99.90
51908;DHT22;39320;53.214;6.556;2022-12-18T15:47:57;0.30;99.90
51908;DHT22;39320;53.214;6.556;2022-12-18T15:50:23;0.10;99.90
51908;DHT22;39320;53.214;6.556;2022-12-18T15:52:52;0.10;99.90
51908;DHT22;39320;53.214;6.556;2022-12-18T15:55:21;0.10;99.90
51908;DHT22;39320;53.214;6.556;2022-12-18T15:58:07;0.10;99.90
51908;DHT22;39320;53.214;6.556;2022-12-18T16:00:35;0.00;99.90
51908;DHT22;39320;53.214;6.556;2022-12-18T16:03:02;0.00;99.90
51908;DHT22;39320;53.214;6.556;2022-12-18T16:05:28;0.10;99.90
51908;DHT22;39320;53.214;6.556;2022-12-18T16:07:54;0.00;99.90
51908;DHT22;39320;53.214;6.556;2022-12-18T16:10:20;0.00;99.90
51908;DHT22;39320;53.214;6.556;2022-12-18T16:12:46;-0.10;99.90
51908;DHT22;39320;53.214;6.556;2022-12-18T16:15:15;0.00;99.90
51908;DHT22;39320;53.214;6.556;2022-12-18T16:17:42;0.00;99.90
51908;DHT22;39320;53.214;6.556;2022-12-18T16:20:17;0.70;99.90
51908;DHT22;39320;53.214;6.556;2022-12-18T16:22:44;0.00;99.90
51908;DHT22;39320;53.214;6.556;2022-12-18T16:25:25;0.00;99.90
51908;DHT22;39320;53.214;6.556;2022-12-18T16:27:52;0.00;99.90
51908;DHT22;39320;53.214;6.556;2022-12-18T16:30:27;0.00;99.90
51908;DHT22;39320;53.214;6.556;2022-12-18T16:32:57;0.00;99.90
51908;DHT22;39320;53.214;6.556;2022-12-18T16:35:24;0.00;99.90
51908;DHT22;39320;53.214;6.556;2022-12-18T16:37:50;0.00;99.90
51908;DHT22;39320;53.214;6.556;2022-12-18T16:40:16;0.00;99.90
51908;DHT22;39320;53.214;6.556;2022-12-18T16:42:44;0.00;99.90
51908;DHT22;39320;53.214;6.556;2022-12-18T16:45:13;0.00;99.90
51908;DHT22;39320;53.214;6.556;2022-12-18T16:47:39;0.00;99.90
51908;DHT22;39320;53.214;6.556;2022-12-18T16:50:06;0.30;99.90
51908;DHT22;39320;53.214;6.556;2022-12-18T16:52:33;0.00;99.90
51908;DHT22;39320;53.214;6.556;2022-12-18T16:54:59;0.40;99.90
51908;DHT22;39320;53.214;6.556;2022-12-18T16:57:25;0.20;99.90
51908;DHT22;39320;53.214;6.556;2022-12-18T16:59:51;0.50;99.90
51908;DHT22;39320;53.214;6.556;2022-12-18T17:02:20;-0.10;99.90
51908;DHT22;39320;53.214;6.556;2022-12-18T17:04:46;-0.10;99.90
51908;DHT22;39320;53.214;6.556;2022-12-18T17:07:12;-0.10;99.90
51908;DHT22;39320;53.214;6.556;2022-12-18T17:09:39;-0.10;99.90
51908;DHT22;39320;53.214;6.556;2022-12-18T17:12:05;-0.10;99.90
51908;DHT22;39320;53.214;6.556;2022-12-18T17:14:31;-0.10;99.90
51908;DHT22;39320;53.214;6.556;2022-12-18T17:16:57;0.00;99.90
51908;DHT22;39320;53.214;6.556;2022-12-18T17:19:25;0.00;99.90
51908;DHT22;39320;53.214;6.556;2022-12-18T17:21:52;0.00;99.90
51908;DHT22;39320;53.214;6.556;2022-12-18T17:24:18;0.00;99.90
51908;DHT22;39320;53.214;6.556;2022-12-18T17:26:44;0.00;99.90
51908;DHT22;39320;53.214;6.556;2022-12-18T17:29:16;0.00;99.90
51908;DHT22;39320;53.214;6.556;2022-12-18T17:31:43;0.00;99.90
51908;DHT22;39320;53.214;6.556;2022-12-18T17:34:10;0.00;99.90
51908;DHT22;39320;53.214;6.556;2022-12-18T17:36:36;0.10;99.90
51908;DHT22;39320;53.214;6.556;2022-12-18T17:39:03;0.10;99.90
51908;DHT22;39320;53.214;6.556;2022-12-18T17:41:30;0.10;99.90
51908;DHT22;39320;53.214;6.556;2022-12-18T17:43:58;0.10;99.90
51908;DHT22;39320;53.214;6.556;2022-12-18T17:46:25;0.10;99.90
51908;DHT22;39320;53.214;6.556;2022-12-18T17:48:54;0.10;99.90